sensor_id;sensor_type;location;lat;lon;timestamp;P1;durP1;ratioP1;P2;durP2;ratioP2
71095;SDS011;58753;49.440;11.126;2023-08-31T00:01:33;3.07;;;1.57;;
71095;SDS011;58753;49.440;11.126;2023-08-31T00:03:59;5.95;;;1.08;;
71095;SDS011;58753;49.440;11.126;2023-08-31T00:06:29;4.43;;;1.83;;
71095;SDS011;58753;49.440;11.126;2023-08-31T00:08:56;2.45;;;1.30;;
71095;SDS011;58753;49.440;11.126;2023-08-31T00:11:24;2.20;;;1.27;;
71095;SDS011;58753;49.440;11.126;2023-08-31T00:13:52;3.05;;;1.40;;
71095;SDS011;58753;49.440;11.126;2023-08-31T00:16:19;2.87;;;1.23;;
71095;SDS011;58753;49.440;11.126;2023-08-31T00:18:50;2.67;;;1.27;;
71095;SDS011;58753;49.440;11.126;2023-08-31T00:21:16;1.77;;;0.80;;
71095;SDS011;58753;49.440;11.126;2023-08-31T00:23:41;2.27;;;1.00;;
71095;SDS011;58753;49.440;11.126;2023-08-31T00:26:06;3.05;;;1.15;;
71095;SDS011;58753;49.440;11.126;2023-08-31T00:28:33;3.63;;;1.27;;
71095;SDS011;58753;49.440;11.126;2023-08-31T00:31:02;2.00;;;1.10;;
71095;SDS011;58753;49.440;11.126;2023-08-31T00:33:30;3.13;;;1.13;;
71095;SDS011;58753;49.440;11.126;2023-08-31T00:36:01;3.42;;;1.30;;
71095;SDS011;58753;49.440;11.126;2023-08-31T00:38:31;2.00;;;1.10;;
71095;SDS011;58753;49.440;11.126;2023-08-31T00:40:58;2.37;;;0.70;;
71095;SDS011;58753;49.440;11.126;2023-08-31T00:43:27;2.80;;;1.02;;
71095;SDS011;58753;49.440;11.126;2023-08-31T00:45:54;1.40;;;0.73;;
71095;SDS011;58753;49.440;11.126;2023-08-31T00:48:24;2.50;;;0.90;;
71095;SDS011;58753;49.440;11.126;2023-08-31T00:50:51;2.33;;;0.98;;
71095;SDS011;58753;49.440;11.126;2023-08-31T00:53:19;1.57;;;0.83;;
71095;SDS011;58753;49.440;11.126;2023-08-31T00:55:46;1.98;;;1.10;;
71095;SDS011;58753;49.440;11.126;2023-08-31T00:58:12;1.88;;;0.90;;
71095;SDS011;58753;49.440;11.126;2023-08-31T01:06:18;2.25;;;0.98;;
71095;SDS011;58753;49.440;11.126;2023-08-31T01:12:11;1.38;;;0.55;;
71095;SDS011;58753;49.440;11.126;2023-08-31T01:14:48;1.70;;;0.80;;
71095;SDS011;58753;49.440;11.126;2023-08-31T01:17:46;2.72;;;0.95;;
71095;SDS011;58753;49.440;11.126;2023-08-31T01:20:14;3.28;;;1.02;;
71095;SDS011;58753;49.440;11.126;2023-08-31T01:25:32;3.35;;;0.82;;
71095;SDS011;58753;49.440;11.126;2023-08-31T01:27:58;2.10;;;0.97;;
71095;SDS011;58753;49.440;11.126;2023-08-31T01:30:24;1.85;;;0.57;;
71095;SDS011;58753;49.440;11.126;2023-08-31T01:32:49;7.07;;;1.73;;
71095;SDS011;58753;49.440;11.126;2023-08-31T01:35:17;2.35;;;0.70;;
71095;SDS011;58753;49.440;11.126;2023-08-31T01:40:31;2.20;;;0.85;;
71095;SDS011;58753;49.440;11.126;2023-08-31T01:43:03;1.73;;;0.80;;
71095;SDS011;58753;49.440;11.126;2023-08-31T01:45:35;1.63;;;0.98;;
71095;SDS011;58753;49.440;11.126;2023-08-31T01:48:02;2.22;;;1.20;;
71095;SDS011;58753;49.440;11.126;2023-08-31T01:50:29;5.05;;;1.25;;
71095;SDS011;58753;49.440;11.126;2023-08-31T01:52:56;2.78;;;1.20;;
71095;SDS011;58753;49.440;11.126;2023-08-31T01:55:22;2.53;;;1.10;;
71095;SDS011;58753;49.440;11.126;2023-08-31T01:57:51;2.75;;;1.45;;
71095;SDS011;58753;49.440;11.126;2023-08-31T02:00:19;4.07;;;1.00;;
71095;SDS011;58753;49.440;11.126;2023-08-31T02:02:47;5.85;;;1.45;;
71095;SDS011;58753;49.440;11.126;2023-08-31T02:05:13;1.80;;;0.98;;
71095;SDS011;58753;49.440;11.126;2023-08-31T02:07:40;7.50;;;1.50;;
71095;SDS011;58753;49.440;11.126;2023-08-31T02:10:06;2.33;;;0.93;;
71095;SDS011;58753;49.440;11.126;2023-08-31T02:12:32;2.20;;;0.70;;
71095;SDS011;58753;49.440;11.126;2023-08-31T02:14:58;1.50;;;0.80;;
71095;SDS011;58753;49.440;11.126;2023-08-31T02:17:23;2.60;;;1.33;;
71095;SDS011;58753;49.440;11.126;2023-08-31T02:19:51;2.58;;;1.08;;
71095;SDS011;58753;49.440;11.126;2023-08-31T02:22:18;2.17;;;0.93;;
71095;SDS011;58753;49.440;11.126;2023-08-31T02:24:44;2.33;;;1.03;;
71095;SDS011;58753;49.440;11.126;2023-08-31T02:27:11;1.65;;;0.68;;
71095;SDS011;58753;49.440;11.126;2023-08-31T02:29:40;1.85;;;1.02;;
71095;SDS011;58753;49.440;11.126;2023-08-31T02:32:05;2.87;;;1.10;;
71095;SDS011;58753;49.440;11.126;2023-08-31T02:34:31;1.38;;;0.57;;
71095;SDS011;58753;49.440;11.126;2023-08-31T02:36:57;1.37;;;0.70;;
71095;SDS011;58753;49.440;11.126;2023-08-31T02:39:22;1.92;;;0.70;;
71095;SDS011;58753;49.440;11.126;2023-08-31T02:41:48;1.27;;;0.97;;
71095;SDS011;58753;49.440;11.126;2023-08-31T02:44:13;1.77;;;0.83;;
71095;SDS011;58753;49.440;11.126;2023-08-31T02:46:39;1.00;;;0.57;;
71095;SDS011;58753;49.440;11.126;2023-08-31T02:49:07;2.40;;;0.53;;
71095;SDS011;58753;49.440;11.126;2023-08-31T02:51:32;1.65;;;0.95;;
71095;SDS011;58753;49.440;11.126;2023-08-31T02:53:57;2.30;;;0.87;;
71095;SDS011;58753;49.440;11.126;2023-08-31T02:56:23;2.30;;;0.77;;
71095;SDS011;58753;49.440;11.126;2023-08-31T02:58:48;3.15;;;1.00;;
71095;SDS011;58753;49.440;11.126;2023-08-31T03:01:16;1.63;;;0.98;;
71095;SDS011;58753;49.440;11.126;2023-08-31T03:03:41;1.53;;;0.70;;
71095;SDS011;58753;49.440;11.126;2023-08-31T03:06:14;2.60;;;0.80;;
71095;SDS011;58753;49.440;11.126;2023-08-31T03:08:40;1.47;;;0.93;;
71095;SDS011;58753;49.440;11.126;2023-08-31T03:11:10;1.33;;;0.60;;
71095;SDS011;58753;49.440;11.126;2023-08-31T03:13:39;1.17;;;0.57;;
71095;SDS011;58753;49.440;11.126;2023-08-31T03:16:04;1.40;;;0.73;;
71095;SDS011;58753;49.440;11.126;2023-08-31T03:18:32;2.30;;;0.93;;
71095;SDS011;58753;49.440;11.126;2023-08-31T03:21:00;1.63;;;0.60;;
71095;SDS011;58753;49.440;11.126;2023-08-31T03:23:26;1.23;;;0.63;;
71095;SDS011;58753;49.440;11.126;2023-08-31T03:25:51;1.37;;;0.57;;
71095;SDS011;58753;49.440;11.126;2023-08-31T03:28:20;1.13;;;0.57;;
71095;SDS011;58753;49.440;11.126;2023-08-31T03:30:45;1.20;;;0.60;;
71095;SDS011;58753;49.440;11.126;2023-08-31T03:33:18;1.10;;;0.60;;
71095;SDS011;58753;49.440;11.126;2023-08-31T03:35:44;1.20;;;0.43;;
71095;SDS011;58753;49.440;11.126;2023-08-31T03:38:12;2.10;;;1.07;;
71095;SDS011;58753;49.440;11.126;2023-08-31T03:40:37;1.55;;;0.82;;
71095;SDS011;58753;49.440;11.126;2023-08-31T03:43:02;1.73;;;0.87;;
71095;SDS011;58753;49.440;11.126;2023-08-31T03:45:31;1.40;;;0.93;;
71095;SDS011;58753;49.440;11.126;2023-08-31T03:47:56;2.25;;;1.25;;
71095;SDS011;58753;49.440;11.126;2023-08-31T03:50:21;1.60;;;0.60;;
71095;SDS011;58753;49.440;11.126;2023-08-31T03:52:47;1.40;;;0.80;;
71095;SDS011;58753;49.440;11.126;2023-08-31T03:55:15;1.63;;;0.80;;
71095;SDS011;58753;49.440;11.126;2023-08-31T03:57:40;1.00;;;0.30;;
71095;SDS011;58753;49.440;11.126;2023-08-31T04:00:10;1.70;;;0.68;;
71095;SDS011;58753;49.440;11.126;2023-08-31T04:02:37;3.00;;;0.88;;
71095;SDS011;58753;49.440;11.126;2023-08-31T04:05:05;1.35;;;0.65;;
71095;SDS011;58753;49.440;11.126;2023-08-31T04:07:32;2.40;;;0.70;;
71095;SDS011;58753;49.440;11.126;2023-08-31T04:10:01;1.65;;;0.73;;
71095;SDS011;58753;49.440;11.126;2023-08-31T04:12:30;1.83;;;0.90;;
71095;SDS011;58753;49.440;11.126;2023-08-31T04:14:55;1.10;;;0.60;;
71095;SDS011;58753;49.440;11.126;2023-08-31T04:17:21;0.85;;;0.50;;
71095;SDS011;58753;49.440;11.126;2023-08-31T04:19:46;1.07;;;0.63;;
71095;SDS011;58753;49.440;11.126;2023-08-31T04:22:12;0.88;;;0.68;;
71095;SDS011;58753;49.440;11.126;2023-08-31T04:24:40;2.40;;;0.90;;
71095;SDS011;58753;49.440;11.126;2023-08-31T04:27:05;1.50;;;0.90;;
71095;SDS011;58753;49.440;11.126;2023-08-31T04:29:33;1.80;;;0.63;;
71095;SDS011;58753;49.440;11.126;2023-08-31T04:31:58;1.55;;;0.57;;
71095;SDS011;58753;49.440;11.126;2023-08-31T04:34:24;1.67;;;1.00;;
71095;SDS011;58753;49.440;11.126;2023-08-31T04:36:49;1.70;;;0.80;;
71095;SDS011;58753;49.440;11.126;2023-08-31T04:39:14;1.57;;;0.77;;
71095;SDS011;58753;49.440;11.126;2023-08-31T04:41:42;1.88;;;0.90;;
71095;SDS011;58753;49.440;11.126;2023-08-31T04:44:10;1.90;;;0.90;;
71095;SDS011;58753;49.440;11.126;2023-08-31T04:46:36;2.38;;;0.90;;
71095;SDS011;58753;49.440;11.126;2023-08-31T04:49:01;1.57;;;0.67;;
71095;SDS011;58753;49.440;11.126;2023-08-31T04:53:57;2.13;;;1.00;;
71095;SDS011;58753;49.440;11.126;2023-08-31T04:56:25;4.40;;;1.25;;
71095;SDS011;58753;49.440;11.126;2023-08-31T04:58:55;2.33;;;1.25;;
71095;SDS011;58753;49.440;11.126;2023-08-31T05:01:20;4.90;;;1.57;;
71095;SDS011;58753;49.440;11.126;2023-08-31T05:03:45;1.20;;;0.70;;
71095;SDS011;58753;49.440;11.126;2023-08-31T05:06:11;2.57;;;1.60;;
71095;SDS011;58753;49.440;11.126;2023-08-31T05:08:38;1.83;;;0.82;;
71095;SDS011;58753;49.440;11.126;2023-08-31T05:11:06;2.78;;;1.33;;
71095;SDS011;58753;49.440;11.126;2023-08-31T05:13:31;2.33;;;1.07;;
71095;SDS011;58753;49.440;11.126;2023-08-31T05:15:57;3.10;;;1.60;;
71095;SDS011;58753;49.440;11.126;2023-08-31T05:18:22;6.87;;;1.40;;
71095;SDS011;58753;49.440;11.126;2023-08-31T05:20:47;2.93;;;1.83;;
71095;SDS011;58753;49.440;11.126;2023-08-31T05:23:18;2.20;;;0.98;;
71095;SDS011;58753;49.440;11.126;2023-08-31T05:25:43;3.08;;;1.65;;
71095;SDS011;58753;49.440;11.126;2023-08-31T05:28:09;3.53;;;1.73;;
71095;SDS011;58753;49.440;11.126;2023-08-31T05:30:45;2.75;;;1.08;;
71095;SDS011;58753;49.440;11.126;2023-08-31T05:33:13;2.92;;;1.40;;
71095;SDS011;58753;49.440;11.126;2023-08-31T05:35:38;1.97;;;1.20;;
71095;SDS011;58753;49.440;11.126;2023-08-31T05:38:03;2.43;;;0.93;;
71095;SDS011;58753;49.440;11.126;2023-08-31T05:40:29;2.63;;;1.50;;
71095;SDS011;58753;49.440;11.126;2023-08-31T05:42:59;1.30;;;0.87;;
71095;SDS011;58753;49.440;11.126;2023-08-31T05:45:24;2.67;;;1.45;;
71095;SDS011;58753;49.440;11.126;2023-08-31T05:47:49;4.07;;;1.87;;
71095;SDS011;58753;49.440;11.126;2023-08-31T05:50:17;2.08;;;1.00;;
71095;SDS011;58753;49.440;11.126;2023-08-31T05:52:42;2.73;;;1.63;;
71095;SDS011;58753;49.440;11.126;2023-08-31T05:55:12;2.90;;;1.45;;
71095;SDS011;58753;49.440;11.126;2023-08-31T05:57:37;3.08;;;1.95;;
71095;SDS011;58753;49.440;11.126;2023-08-31T06:00:03;4.03;;;1.60;;
71095;SDS011;58753;49.440;11.126;2023-08-31T06:02:30;3.05;;;1.70;;
71095;SDS011;58753;49.440;11.126;2023-08-31T06:04:56;3.77;;;1.70;;
71095;SDS011;58753;49.440;11.126;2023-08-31T06:07:21;2.40;;;1.10;;
71095;SDS011;58753;49.440;11.126;2023-08-31T06:09:46;3.80;;;2.07;;
71095;SDS011;58753;49.440;11.126;2023-08-31T06:12:13;2.40;;;1.73;;
71095;SDS011;58753;49.440;11.126;2023-08-31T06:14:39;2.93;;;1.27;;
71095;SDS011;58753;49.440;11.126;2023-08-31T06:17:06;2.40;;;1.27;;
71095;SDS011;58753;49.440;11.126;2023-08-31T06:19:33;3.38;;;1.90;;
71095;SDS011;58753;49.440;11.126;2023-08-31T06:21:59;2.93;;;1.50;;
71095;SDS011;58753;49.440;11.126;2023-08-31T06:24:24;4.93;;;2.27;;
71095;SDS011;58753;49.440;11.126;2023-08-31T06:26:49;2.77;;;1.57;;
71095;SDS011;58753;49.440;11.126;2023-08-31T06:29:17;2.90;;;1.65;;
71095;SDS011;58753;49.440;11.126;2023-08-31T06:31:45;3.60;;;1.70;;
71095;SDS011;58753;49.440;11.126;2023-08-31T06:34:10;2.80;;;1.67;;
71095;SDS011;58753;49.440;11.126;2023-08-31T06:36:38;3.42;;;2.15;;
71095;SDS011;58753;49.440;11.126;2023-08-31T06:39:03;2.20;;;1.10;;
71095;SDS011;58753;49.440;11.126;2023-08-31T06:41:31;4.25;;;1.58;;
71095;SDS011;58753;49.440;11.126;2023-08-31T06:44:02;2.80;;;1.90;;
71095;SDS011;58753;49.440;11.126;2023-08-31T06:46:29;2.87;;;1.53;;
71095;SDS011;58753;49.440;11.126;2023-08-31T06:48:55;3.97;;;1.95;;
71095;SDS011;58753;49.440;11.126;2023-08-31T06:51:20;2.60;;;1.43;;
71095;SDS011;58753;49.440;11.126;2023-08-31T06:53:46;3.80;;;2.07;;
71095;SDS011;58753;49.440;11.126;2023-08-31T06:56:14;3.37;;;1.30;;
71095;SDS011;58753;49.440;11.126;2023-08-31T06:58:39;2.67;;;1.15;;
71095;SDS011;58753;49.440;11.126;2023-08-31T07:01:12;2.70;;;2.03;;
71095;SDS011;58753;49.440;11.126;2023-08-31T07:03:40;1.80;;;0.73;;
71095;SDS011;58753;49.440;11.126;2023-08-31T07:06:05;2.55;;;1.08;;
71095;SDS011;58753;49.440;11.126;2023-08-31T07:08:30;2.63;;;1.43;;
71095;SDS011;58753;49.440;11.126;2023-08-31T07:10:56;3.10;;;1.00;;
71095;SDS011;58753;49.440;11.126;2023-08-31T07:13:21;2.70;;;1.50;;
71095;SDS011;58753;49.440;11.126;2023-08-31T07:15:49;3.88;;;1.58;;
71095;SDS011;58753;49.440;11.126;2023-08-31T07:18:16;3.47;;;1.50;;
71095;SDS011;58753;49.440;11.126;2023-08-31T07:20:42;2.43;;;1.30;;
71095;SDS011;58753;49.440;11.126;2023-08-31T07:23:10;2.40;;;1.27;;
71095;SDS011;58753;49.440;11.126;2023-08-31T07:25:36;2.87;;;1.37;;
71095;SDS011;58753;49.440;11.126;2023-08-31T07:28:01;2.80;;;1.10;;
71095;SDS011;58753;49.440;11.126;2023-08-31T07:30:30;3.90;;;2.08;;
71095;SDS011;58753;49.440;11.126;2023-08-31T07:32:58;3.83;;;1.95;;
71095;SDS011;58753;49.440;11.126;2023-08-31T07:35:24;2.53;;;1.40;;
71095;SDS011;58753;49.440;11.126;2023-08-31T07:37:52;2.63;;;1.40;;
71095;SDS011;58753;49.440;11.126;2023-08-31T07:40:18;2.55;;;1.40;;
71095;SDS011;58753;49.440;11.126;2023-08-31T07:42:43;4.43;;;1.23;;
71095;SDS011;58753;49.440;11.126;2023-08-31T07:45:08;2.00;;;0.83;;
71095;SDS011;58753;49.440;11.126;2023-08-31T07:47:34;2.40;;;1.05;;
71095;SDS011;58753;49.440;11.126;2023-08-31T07:49:59;3.83;;;1.23;;
71095;SDS011;58753;49.440;11.126;2023-08-31T07:52:25;2.57;;;1.17;;
71095;SDS011;58753;49.440;11.126;2023-08-31T07:54:50;1.73;;;1.07;;
71095;SDS011;58753;49.440;11.126;2023-08-31T07:57:16;3.37;;;1.07;;
71095;SDS011;58753;49.440;11.126;2023-08-31T07:59:41;4.97;;;1.60;;
71095;SDS011;58753;49.440;11.126;2023-08-31T08:02:09;1.73;;;0.70;;
71095;SDS011;58753;49.440;11.126;2023-08-31T08:04:34;7.80;;;1.27;;
71095;SDS011;58753;49.440;11.126;2023-08-31T08:06:59;2.20;;;1.00;;
71095;SDS011;58753;49.440;11.126;2023-08-31T08:09:25;3.57;;;1.50;;
71095;SDS011;58753;49.440;11.126;2023-08-31T08:11:53;2.28;;;1.17;;
71095;SDS011;58753;49.440;11.126;2023-08-31T08:14:21;1.88;;;0.90;;
71095;SDS011;58753;49.440;11.126;2023-08-31T08:16:46;1.77;;;0.83;;
71095;SDS011;58753;49.440;11.126;2023-08-31T08:19:18;1.98;;;0.93;;
71095;SDS011;58753;49.440;11.126;2023-08-31T08:21:46;4.45;;;0.80;;
71095;SDS011;58753;49.440;11.126;2023-08-31T08:24:11;2.33;;;1.00;;
71095;SDS011;58753;49.440;11.126;2023-08-31T08:26:39;2.17;;;1.08;;
71095;SDS011;58753;49.440;11.126;2023-08-31T08:29:04;2.23;;;1.03;;
71095;SDS011;58753;49.440;11.126;2023-08-31T08:31:32;1.70;;;0.45;;
71095;SDS011;58753;49.440;11.126;2023-08-31T08:33:57;1.53;;;0.50;;
71095;SDS011;58753;49.440;11.126;2023-08-31T08:36:25;4.43;;;0.60;;
71095;SDS011;58753;49.440;11.126;2023-08-31T08:38:51;1.10;;;0.60;;
71095;SDS011;58753;49.440;11.126;2023-08-31T08:41:17;1.40;;;0.53;;
71095;SDS011;58753;49.440;11.126;2023-08-31T08:43:50;1.60;;;0.63;;
71095;SDS011;58753;49.440;11.126;2023-08-31T08:46:16;3.58;;;1.02;;
71095;SDS011;58753;49.440;11.126;2023-08-31T08:48:44;1.47;;;0.63;;
71095;SDS011;58753;49.440;11.126;2023-08-31T08:51:12;1.77;;;0.75;;
71095;SDS011;58753;49.440;11.126;2023-08-31T08:53:40;2.63;;;0.82;;
71095;SDS011;58753;49.440;11.126;2023-08-31T08:56:07;2.30;;;1.37;;
71095;SDS011;58753;49.440;11.126;2023-08-31T08:58:35;4.07;;;0.30;;
71095;SDS011;58753;49.440;11.126;2023-08-31T09:01:00;2.07;;;0.87;;
71095;SDS011;58753;49.440;11.126;2023-08-31T09:03:27;0.90;;;0.40;;
71095;SDS011;58753;49.440;11.126;2023-08-31T09:05:52;1.23;;;0.75;;
71095;SDS011;58753;49.440;11.126;2023-08-31T09:08:20;1.83;;;0.70;;
71095;SDS011;58753;49.440;11.126;2023-08-31T09:10:55;1.73;;;0.60;;
71095;SDS011;58753;49.440;11.126;2023-08-31T09:13:23;1.77;;;0.60;;
71095;SDS011;58753;49.440;11.126;2023-08-31T09:15:52;1.13;;;0.60;;
71095;SDS011;58753;49.440;11.126;2023-08-31T09:18:26;0.90;;;0.40;;
71095;SDS011;58753;49.440;11.126;2023-08-31T09:20:53;2.28;;;0.55;;
71095;SDS011;58753;49.440;11.126;2023-08-31T09:23:19;0.98;;;0.43;;
71095;SDS011;58753;49.440;11.126;2023-08-31T09:25:49;1.20;;;0.60;;
71095;SDS011;58753;49.440;11.126;2023-08-31T09:28:16;2.17;;;0.47;;
71095;SDS011;58753;49.440;11.126;2023-08-31T09:30:45;1.67;;;0.65;;
71095;SDS011;58753;49.440;11.126;2023-08-31T09:33:18;1.20;;;0.40;;
71095;SDS011;58753;49.440;11.126;2023-08-31T09:38:24;1.73;;;0.70;;
71095;SDS011;58753;49.440;11.126;2023-08-31T09:40:51;2.47;;;0.40;;
71095;SDS011;58753;49.440;11.126;2023-08-31T09:43:23;1.83;;;0.40;;
71095;SDS011;58753;49.440;11.126;2023-08-31T09:45:50;1.80;;;0.55;;
71095;SDS011;58753;49.440;11.126;2023-08-31T09:48:18;0.57;;;0.30;;
71095;SDS011;58753;49.440;11.126;2023-08-31T09:50:44;1.05;;;0.20;;
71095;SDS011;58753;49.440;11.126;2023-08-31T09:53:11;1.15;;;0.40;;
71095;SDS011;58753;49.440;11.126;2023-08-31T09:55:38;2.10;;;0.50;;
71095;SDS011;58753;49.440;11.126;2023-08-31T09:58:08;3.65;;;0.35;;
71095;SDS011;58753;49.440;11.126;2023-08-31T10:00:38;2.00;;;0.40;;
71095;SDS011;58753;49.440;11.126;2023-08-31T10:03:07;1.45;;;0.30;;
71095;SDS011;58753;49.440;11.126;2023-08-31T10:05:33;1.75;;;0.60;;
71095;SDS011;58753;49.440;11.126;2023-08-31T10:07:59;0.90;;;0.40;;
71095;SDS011;58753;49.440;11.126;2023-08-31T10:10:28;0.73;;;0.47;;
71095;SDS011;58753;49.440;11.126;2023-08-31T10:12:55;0.82;;;0.30;;
71095;SDS011;58753;49.440;11.126;2023-08-31T10:15:21;1.10;;;0.40;;
71095;SDS011;58753;49.440;11.126;2023-08-31T10:17:47;0.90;;;0.40;;
71095;SDS011;58753;49.440;11.126;2023-08-31T10:20:14;2.75;;;0.50;;
71095;SDS011;58753;49.440;11.126;2023-08-31T10:22:41;1.93;;;0.50;;
71095;SDS011;58753;49.440;11.126;2023-08-31T10:25:07;2.03;;;0.63;;
71095;SDS011;58753;49.440;11.126;2023-08-31T10:27:40;0.90;;;0.30;;
71095;SDS011;58753;49.440;11.126;2023-08-31T10:38:13;1.70;;;0.70;;
71095;SDS011;58753;49.440;11.126;2023-08-31T10:40:44;1.05;;;0.40;;
71095;SDS011;58753;49.440;11.126;2023-08-31T10:43:27;0.77;;;0.43;;
71095;SDS011;58753;49.440;11.126;2023-08-31T10:45:52;2.00;;;0.53;;
71095;SDS011;58753;49.440;11.126;2023-08-31T10:48:18;1.20;;;0.60;;
71095;SDS011;58753;49.440;11.126;2023-08-31T10:50:44;0.83;;;0.37;;
71095;SDS011;58753;49.440;11.126;2023-08-31T10:53:12;1.13;;;0.30;;
71095;SDS011;58753;49.440;11.126;2023-08-31T10:55:52;1.33;;;0.38;;
71095;SDS011;58753;49.440;11.126;2023-08-31T10:58:18;1.10;;;0.57;;
71095;SDS011;58753;49.440;11.126;2023-08-31T11:00:46;1.05;;;0.68;;
71095;SDS011;58753;49.440;11.126;2023-08-31T11:03:15;1.73;;;0.82;;
71095;SDS011;58753;49.440;11.126;2023-08-31T11:05:59;1.47;;;0.93;;
71095;SDS011;58753;49.440;11.126;2023-08-31T11:08:27;0.68;;;0.30;;
71095;SDS011;58753;49.440;11.126;2023-08-31T11:10:52;0.87;;;0.57;;
71095;SDS011;58753;49.440;11.126;2023-08-31T11:13:22;1.20;;;0.70;;
71095;SDS011;58753;49.440;11.126;2023-08-31T11:15:48;2.72;;;0.60;;
71095;SDS011;58753;49.440;11.126;2023-08-31T11:18:14;1.35;;;0.88;;
71095;SDS011;58753;49.440;11.126;2023-08-31T11:20:43;2.90;;;0.60;;
71095;SDS011;58753;49.440;11.126;2023-08-31T11:23:09;1.23;;;0.40;;
71095;SDS011;58753;49.440;11.126;2023-08-31T11:25:35;0.95;;;0.40;;
71095;SDS011;58753;49.440;11.126;2023-08-31T11:28:01;0.98;;;0.32;;
71095;SDS011;58753;49.440;11.126;2023-08-31T11:30:32;1.30;;;0.70;;
71095;SDS011;58753;49.440;11.126;2023-08-31T11:33:05;1.63;;;0.43;;
71095;SDS011;58753;49.440;11.126;2023-08-31T11:38:55;0.98;;;0.43;;
71095;SDS011;58753;49.440;11.126;2023-08-31T11:41:21;1.03;;;0.40;;
71095;SDS011;58753;49.440;11.126;2023-08-31T11:43:46;2.47;;;0.50;;
71095;SDS011;58753;49.440;11.126;2023-08-31T11:46:12;2.38;;;0.50;;
71095;SDS011;58753;49.440;11.126;2023-08-31T11:48:38;1.20;;;0.57;;
71095;SDS011;58753;49.440;11.126;2023-08-31T11:51:03;2.67;;;0.50;;
71095;SDS011;58753;49.440;11.126;2023-08-31T11:53:29;1.20;;;0.32;;
71095;SDS011;58753;49.440;11.126;2023-08-31T11:55:54;1.67;;;0.63;;
71095;SDS011;58753;49.440;11.126;2023-08-31T11:58:20;0.80;;;0.37;;
71095;SDS011;58753;49.440;11.126;2023-08-31T12:00:54;0.60;;;0.35;;
71095;SDS011;58753;49.440;11.126;2023-08-31T12:03:20;1.45;;;0.43;;
71095;SDS011;58753;49.440;11.126;2023-08-31T12:05:46;1.67;;;0.40;;
71095;SDS011;58753;49.440;11.126;2023-08-31T12:08:15;0.80;;;0.30;;
71095;SDS011;58753;49.440;11.126;2023-08-31T12:10:43;1.75;;;0.57;;
71095;SDS011;58753;49.440;11.126;2023-08-31T12:13:09;1.50;;;0.43;;
71095;SDS011;58753;49.440;11.126;2023-08-31T12:15:35;0.97;;;0.33;;
71095;SDS011;58753;49.440;11.126;2023-08-31T12:18:14;1.77;;;0.68;;
71095;SDS011;58753;49.440;11.126;2023-08-31T12:21:13;1.58;;;0.70;;
71095;SDS011;58753;49.440;11.126;2023-08-31T12:23:31;1.17;;;0.43;;
71095;SDS011;58753;49.440;11.126;2023-08-31T12:25:57;0.20;;;0.10;;
71095;SDS011;58753;49.440;11.126;2023-08-31T12:28:23;0.77;;;0.23;;
71095;SDS011;58753;49.440;11.126;2023-08-31T12:30:49;4.57;;;0.38;;
71095;SDS011;58753;49.440;11.126;2023-08-31T12:33:19;0.73;;;0.35;;
71095;SDS011;58753;49.440;11.126;2023-08-31T12:35:49;1.08;;;0.40;;
71095;SDS011;58753;49.440;11.126;2023-08-31T12:38:17;0.93;;;0.30;;
71095;SDS011;58753;49.440;11.126;2023-08-31T12:40:44;4.87;;;0.37;;
71095;SDS011;58753;49.440;11.126;2023-08-31T12:43:09;0.73;;;0.30;;
71095;SDS011;58753;49.440;11.126;2023-08-31T12:45:35;0.77;;;0.43;;
71095;SDS011;58753;49.440;11.126;2023-08-31T12:48:01;4.45;;;0.30;;
71095;SDS011;58753;49.440;11.126;2023-08-31T12:50:29;1.00;;;0.40;;
71095;SDS011;58753;49.440;11.126;2023-08-31T12:52:55;2.10;;;0.37;;
71095;SDS011;58753;49.440;11.126;2023-08-31T12:55:20;3.88;;;0.38;;
71095;SDS011;58753;49.440;11.126;2023-08-31T12:57:46;0.70;;;0.30;;
71095;SDS011;58753;49.440;11.126;2023-08-31T13:00:11;1.55;;;0.52;;
71095;SDS011;58753;49.440;11.126;2023-08-31T13:02:38;1.43;;;0.53;;
71095;SDS011;58753;49.440;11.126;2023-08-31T13:05:04;0.43;;;0.20;;
71095;SDS011;58753;49.440;11.126;2023-08-31T13:07:30;2.03;;;0.30;;
71095;SDS011;58753;49.440;11.126;2023-08-31T13:09:57;2.15;;;0.22;;
71095;SDS011;58753;49.440;11.126;2023-08-31T13:12:24;0.80;;;0.28;;
71095;SDS011;58753;49.440;11.126;2023-08-31T13:14:49;0.77;;;0.30;;
71095;SDS011;58753;49.440;11.126;2023-08-31T13:17:15;1.50;;;0.37;;
71095;SDS011;58753;49.440;11.126;2023-08-31T13:19:40;1.23;;;0.27;;
71095;SDS011;58753;49.440;11.126;2023-08-31T13:22:06;1.55;;;0.50;;
71095;SDS011;58753;49.440;11.126;2023-08-31T13:24:31;1.30;;;0.30;;
71095;SDS011;58753;49.440;11.126;2023-08-31T13:26:57;1.17;;;0.50;;
71095;SDS011;58753;49.440;11.126;2023-08-31T13:29:22;1.20;;;0.60;;
71095;SDS011;58753;49.440;11.126;2023-08-31T13:31:47;1.90;;;0.50;;
71095;SDS011;58753;49.440;11.126;2023-08-31T13:34:13;1.10;;;0.40;;
71095;SDS011;58753;49.440;11.126;2023-08-31T13:36:40;0.82;;;0.30;;
71095;SDS011;58753;49.440;11.126;2023-08-31T13:39:06;1.53;;;0.40;;
71095;SDS011;58753;49.440;11.126;2023-08-31T13:41:32;2.40;;;0.40;;
71095;SDS011;58753;49.440;11.126;2023-08-31T13:43:58;1.70;;;0.45;;
71095;SDS011;58753;49.440;11.126;2023-08-31T13:46:24;1.17;;;0.32;;
71095;SDS011;58753;49.440;11.126;2023-08-31T13:48:49;2.17;;;0.43;;
71095;SDS011;58753;49.440;11.126;2023-08-31T13:51:14;0.90;;;0.30;;
71095;SDS011;58753;49.440;11.126;2023-08-31T13:53:40;1.00;;;0.40;;
71095;SDS011;58753;49.440;11.126;2023-08-31T13:56:05;0.70;;;0.20;;
71095;SDS011;58753;49.440;11.126;2023-08-31T13:58:31;1.33;;;0.27;;
71095;SDS011;58753;49.440;11.126;2023-08-31T14:00:56;1.43;;;0.30;;
71095;SDS011;58753;49.440;11.126;2023-08-31T14:03:22;2.17;;;0.53;;
71095;SDS011;58753;49.440;11.126;2023-08-31T14:05:48;0.60;;;0.20;;
71095;SDS011;58753;49.440;11.126;2023-08-31T14:08:14;1.20;;;0.53;;
71095;SDS011;58753;49.440;11.126;2023-08-31T14:10:39;1.27;;;0.25;;
71095;SDS011;58753;49.440;11.126;2023-08-31T14:13:05;1.23;;;0.43;;
71095;SDS011;58753;49.440;11.126;2023-08-31T14:15:30;1.43;;;0.47;;
71095;SDS011;58753;49.440;11.126;2023-08-31T14:17:56;1.45;;;0.38;;
71095;SDS011;58753;49.440;11.126;2023-08-31T14:20:26;1.40;;;0.30;;
71095;SDS011;58753;49.440;11.126;2023-08-31T14:22:54;4.97;;;0.53;;
71095;SDS011;58753;49.440;11.126;2023-08-31T14:25:24;3.33;;;0.30;;
71095;SDS011;58753;49.440;11.126;2023-08-31T14:27:50;1.20;;;0.50;;
71095;SDS011;58753;49.440;11.126;2023-08-31T14:30:20;1.50;;;0.27;;
71095;SDS011;58753;49.440;11.126;2023-08-31T14:32:46;1.30;;;0.40;;
71095;SDS011;58753;49.440;11.126;2023-08-31T14:35:14;1.35;;;0.50;;
71095;SDS011;58753;49.440;11.126;2023-08-31T14:37:39;1.43;;;0.20;;
71095;SDS011;58753;49.440;11.126;2023-08-31T14:40:07;1.58;;;0.40;;
71095;SDS011;58753;49.440;11.126;2023-08-31T14:42:35;1.00;;;0.38;;
71095;SDS011;58753;49.440;11.126;2023-08-31T14:45:04;1.15;;;0.57;;
71095;SDS011;58753;49.440;11.126;2023-08-31T14:47:30;1.87;;;0.50;;
71095;SDS011;58753;49.440;11.126;2023-08-31T14:49:55;0.80;;;0.20;;
71095;SDS011;58753;49.440;11.126;2023-08-31T14:52:21;2.20;;;1.00;;
71095;SDS011;58753;49.440;11.126;2023-08-31T14:54:48;1.00;;;0.40;;
71095;SDS011;58753;49.440;11.126;2023-08-31T14:57:14;0.70;;;0.27;;
71095;SDS011;58753;49.440;11.126;2023-08-31T14:59:39;2.03;;;0.60;;
71095;SDS011;58753;49.440;11.126;2023-08-31T15:02:07;1.53;;;0.50;;
71095;SDS011;58753;49.440;11.126;2023-08-31T15:04:33;4.25;;;0.60;;